Time;durP1;ratioP1;P1;durP2;ratioP2;P2;SDS_P1;SDS_P2;PMS_P1;PMS_P2;Temp;Humidity;BMP_temperature;BMP_pressure;BME280_temperature;BME280_humidity;BME280_pressure;Samples;Min_cycle;Max_cycle;Signal;HPM_P1;HPM_P2
2022/06/22 00:03:50;;;;;;;10.98;8.07;;;29.00;69.20;;;;;;10906133;32;20050;-72
2022/06/22 00:10:03;;;;;;;6.78;5.25;;;28.90;69.80;;;;;;10905638;32;20081;-71
2022/06/22 00:16:17;;;;;;;11.60;8.43;;;28.80;69.90;;;;;;10905531;32;20331;-71
2022/06/22 00:22:26;;;;;;;14.45;9.27;;;28.70;71.30;;;;;;10905354;32;20027;-70
2022/06/22 00:28:35;;;;;;;8.98;6.80;;;28.60;71.60;;;;;;10905186;32;20046;-72
2022/06/22 00:34:37;;;;;;;12.15;5.90;;;28.60;71.70;;;;;;10905144;32;20438;-71
2022/06/22 00:40:39;;;;;;;7.70;5.62;;;28.40;72.20;;;;;;10904924;32;20074;-72
2022/06/22 00:46:59;;;;;;;7.95;5.47;;;28.30;72.70;;;;;;10904630;32;20347;-70
2022/06/22 00:53:49;;;;;;;6.32;5.00;;;28.30;73.10;;;;;;10904633;32;20301;-72
2022/06/22 00:59:58;;;;;;;10.00;4.37;;;28.20;73.30;;;;;;10827014;32;20032;-70
2022/06/22 01:06:08;;;;;;;10.07;6.35;;;28.30;73.20;;;;;;10825838;33;20050;-71
2022/06/22 01:12:37;;;;;;;8.98;6.75;;;28.30;73.50;;;;;;10825763;33;20063;-71
2022/06/22 01:18:48;;;;;;;7.15;5.28;;;28.00;73.80;;;;;;10813295;33;20428;-70
2022/06/22 01:25:29;;;;;;;11.85;6.03;;;28.00;74.40;;;;;;10825521;33;20046;-73
2022/06/22 01:31:33;;;;;;;8.85;5.57;;;27.90;74.40;;;;;;10716783;33;20472;-72
2022/06/22 01:37:35;;;;;;;10.95;5.00;;;27.90;75.20;;;;;;10788636;33;20340;-70
2022/06/22 01:43:44;;;;;;;12.55;4.28;;;27.80;75.40;;;;;;10792035;33;20095;-71
2022/06/22 01:49:53;;;;;;;6.53;5.03;;;27.80;75.20;;;;;;10796447;33;20032;-71
2022/06/22 01:56:14;;;;;;;8.45;5.53;;;27.80;75.60;;;;;;10796276;33;20332;-71
2022/06/22 02:02:25;;;;;;;6.85;4.93;;;27.70;75.50;;;;;;10795978;33;20032;-70
2022/06/22 02:08:39;;;;;;;8.85;4.32;;;27.60;75.90;;;;;;10884805;32;20023;-72
2022/06/22 02:14:48;;;;;;;6.68;3.75;;;27.60;75.70;;;;;;10909747;32;20054;-72
2022/06/22 02:20:51;;;;;;;6.05;3.22;;;27.70;75.00;;;;;;10909649;32;20085;-72
2022/06/22 02:26:53;;;;;;;5.05;2.80;;;27.80;74.50;;;;;;10892347;32;20050;-72
2022/06/22 02:32:56;;;;;;;3.97;2.60;;;27.80;74.00;;;;;;10909214;32;20028;-72
2022/06/22 02:39:03;;;;;;;6.53;2.87;;;27.80;73.80;;;;;;10908955;32;20031;-72
2022/06/22 02:45:09;;;;;;;4.95;2.83;;;27.80;73.70;;;;;;10908839;32;20015;-72
2022/06/22 02:51:23;;;;;;;4.57;2.65;;;27.80;73.80;;;;;;10908751;32;20023;-72
2022/06/22 02:57:30;;;;;;;11.43;3.22;;;27.80;74.20;;;;;;10907572;32;20050;-72
2022/06/22 03:03:34;;;;;;;;;;;27.70;74.10;;;;;;10902743;32;20035;-71
2022/06/22 03:09:38;;;;;;;4.87;2.53;;;27.60;74.30;;;;;;10890633;32;20258;-71
2022/06/22 03:15:41;;;;;;;8.38;3.42;;;27.50;74.70;;;;;;10907762;32;20050;-72
2022/06/22 03:21:43;;;;;;;5.80;2.20;;;27.40;74.90;;;;;;10907449;32;20045;-72
2022/06/22 03:27:52;;;;;;;7.03;2.58;;;27.30;74.90;;;;;;10907314;32;20050;-72
2022/06/22 03:34:09;;;;;;;5.05;2.05;;;27.40;74.80;;;;;;10907127;32;20038;-72
2022/06/22 03:40:37;;;;;;;5.37;2.30;;;27.40;74.70;;;;;;10907046;32;20015;-73
2022/06/22 03:46:56;;;;;;;3.65;1.77;;;27.40;74.30;;;;;;10828986;32;20054;-72
2022/06/22 03:53:06;;;;;;;5.72;2.25;;;27.40;74.00;;;;;;10827763;32;20431;-69
2022/06/22 03:59:08;;;;;;;3.00;1.92;;;27.40;73.80;;;;;;10815340;32;20340;-70
2022/06/22 04:05:17;;;;;;;9.32;2.75;;;27.50;73.40;;;;;;10828212;32;20083;-69
2022/06/22 04:11:26;;;;;;;4.50;2.08;;;27.50;73.10;;;;;;10828291;32;20019;-69
2022/06/22 04:17:42;;;;;;;5.10;1.98;;;27.40;72.90;;;;;;10827895;32;20024;-69
2022/06/22 04:23:55;;;;;;;12.13;2.72;;;27.30;73.10;;;;;;10890401;32;20441;-69
2022/06/22 04:30:00;;;;;;;8.35;1.92;;;27.40;72.60;;;;;;10978021;27;20034;-69
2022/06/22 04:36:06;;;;;;;2.00;1.05;;;27.50;72.20;;;;;;11005344;32;20393;-69
2022/06/22 04:42:10;;;;;;;3.53;1.80;;;27.40;72.10;;;;;;11018148;32;20025;-69
2022/06/22 04:48:50;;;;;;;7.78;2.53;;;27.30;72.30;;;;;;11018145;32;20045;-69
2022/06/22 04:54:56;;;;;;;1.67;1.27;;;27.50;71.90;;;;;;10826666;32;20032;-69
2022/06/22 05:00:59;;;;;;;4.43;1.75;;;27.60;71.70;;;;;;10825792;32;20087;-69
2022/06/22 05:07:21;;;;;;;2.28;1.48;;;27.70;71.50;;;;;;10825632;33;20051;-70
2022/06/22 05:13:38;;;;;;;3.80;1.90;;;27.70;71.20;;;;;;10825347;33;20048;-67
2022/06/22 05:19:53;;;;;;;6.72;2.45;;;27.60;71.30;;;;;;10830876;32;20016;-69
2022/06/22 05:26:00;;;;;;;5.28;2.10;;;27.50;71.40;;;;;;10820666;32;20050;-69
2022/06/22 05:32:09;;;;;;;2.22;0.95;;;27.50;71.40;;;;;;11012106;32;20053;-69
2022/06/22 05:38:11;;;;;;;6.90;1.83;;;27.50;71.20;;;;;;11022394;32;20088;-69
2022/06/22 05:44:18;;;;;;;7.30;1.52;;;27.60;71.10;;;;;;11024335;32;20060;-68
2022/06/22 05:50:58;;;;;;;7.93;2.17;;;27.70;70.80;;;;;;11019876;32;20092;-68
2022/06/22 05:57:15;;;;;;;2.33;1.48;;;27.80;70.40;;;;;;11020310;32;20385;-69
2022/06/22 06:03:42;;;;;;;8.57;2.03;;;27.80;70.30;;;;;;11022482;32;20030;-69
2022/06/22 06:09:46;;;;;;;2.75;1.60;;;27.80;70.10;;;;;;11022323;32;20014;-68
2022/06/22 06:16:06;;;;;;;6.40;1.65;;;27.90;70.00;;;;;;11023006;32;20018;-69
2022/06/22 06:22:11;;;;;;;4.40;2.00;;;27.90;70.00;;;;;;11021407;32;20045;-69
2022/06/22 06:28:45;;;;;;;3.25;1.35;;;27.90;70.00;;;;;;11017961;32;20338;-70
2022/06/22 06:35:14;;;;;;;5.18;1.85;;;27.90;69.70;;;;;;11018552;32;20044;-68
2022/06/22 06:41:28;;;;;;;7.07;1.90;;;28.10;69.20;;;;;;10797408;32;20031;-67
2022/06/22 06:47:35;;;;;;;10.10;2.45;;;28.10;68.80;;;;;;10792851;33;20020;-67
2022/06/22 06:53:55;;;;;;;7.25;1.92;;;28.10;68.90;;;;;;10792673;33;20028;-69
2022/06/22 07:00:04;;;;;;;3.72;1.65;;;28.10;68.70;;;;;;10776505;33;20042;-67
2022/06/22 07:06:07;;;;;;;4.53;2.40;;;28.20;68.50;;;;;;10792505;33;20062;-69
2022/06/22 07:12:25;;;;;;;8.25;2.33;;;28.50;68.10;;;;;;10793512;32;20067;-67
2022/06/22 07:19:06;;;;;;;4.75;2.28;;;28.50;67.30;;;;;;10983087;32;20056;-68
2022/06/22 07:25:37;;;;;;;5.32;1.80;;;28.50;66.60;;;;;;11020912;32;20017;-68
2022/06/22 07:31:47;;;;;;;4.65;2.12;;;28.70;66.30;;;;;;10816846;32;20023;-70
2022/06/22 07:38:22;;;;;;;7.60;2.40;;;28.70;66.60;;;;;;10828539;32;20447;-68
2022/06/22 07:44:28;;;;;;;2.62;1.62;;;28.80;66.10;;;;;;10755767;33;20033;-68
2022/06/22 07:50:36;;;;;;;7.30;3.05;;;28.50;66.00;;;;;;10754404;33;20448;-68
2022/06/22 07:56:46;;;;;;;;;;;28.70;65.70;;;;;;10755649;33;20052;-68
2022/06/22 08:03:06;;;;;;;9.40;3.00;;;28.80;64.40;;;;;;10755291;33;19924;-67
2022/06/22 08:09:25;;;;;;;13.65;3.40;;;28.90;63.20;;;;;;10878783;32;20061;-67
2022/06/22 08:15:33;;;;;;;7.45;3.83;;;28.90;62.80;;;;;;10852170;32;20035;-68
2022/06/22 08:21:43;;;;;;;10.38;3.62;;;29.00;63.20;;;;;;10963191;32;20050;-68
2022/06/22 08:27:45;;;;;;;8.38;2.97;;;28.90;62.60;;;;;;10966965;32;20069;-68
2022/06/22 08:33:55;;;;;;;5.60;2.87;;;28.80;61.70;;;;;;10978943;32;20022;-68
2022/06/22 08:40:23;;;;;;;9.77;4.35;;;28.60;62.00;;;;;;10966812;32;20023;-68
2022/06/22 08:46:47;;;;;;;7.55;3.42;;;28.40;61.30;;;;;;10966388;32;20406;-68
2022/06/22 08:53:11;;;;;;;7.62;3.65;;;28.30;61.40;;;;;;10976689;32;20076;-69
2022/06/22 08:59:54;;;;;;;8.82;3.53;;;28.30;61.70;;;;;;10979383;32;20022;-68
2022/06/22 09:13:17;;;;;;;7.00;2.75;;;28.50;62.50;;;;;;10978754;32;20391;-69
2022/06/22 09:19:40;;;;;;;10.20;4.18;;;28.30;63.90;;;;;;10979398;32;20031;-70
2022/06/22 09:25:49;;;;;;;5.32;2.90;;;28.10;66.00;;;;;;10979243;32;20030;-68
2022/06/22 09:32:17;;;;;;;7.60;3.17;;;27.90;66.40;;;;;;10979214;32;20065;-68
2022/06/22 09:38:48;;;;;;;3.55;2.37;;;28.00;66.40;;;;;;10979169;32;20018;-69
2022/06/22 09:45:25;;;;;;;4.57;2.55;;;28.20;66.10;;;;;;10979019;32;20026;-69
2022/06/22 09:52:01;;;;;;;7.20;2.85;;;28.30;65.80;;;;;;10961521;32;20031;-69
2022/06/22 09:58:29;;;;;;;4.70;2.50;;;28.40;65.60;;;;;;10978767;32;20057;-69
2022/06/22 10:04:54;;;;;;;6.97;3.12;;;28.60;65.30;;;;;;10982109;32;20080;-70
2022/06/22 10:11:36;;;;;;;5.12;3.03;;;28.80;65.10;;;;;;10985473;32;20030;-69
2022/06/22 10:18:05;;;;;;;5.07;2.37;;;28.80;65.20;;;;;;10986531;32;20314;-69
2022/06/22 10:24:35;;;;;;;4.37;2.28;;;29.00;64.90;;;;;;10982943;32;20428;-68
2022/06/22 10:30:51;;;;;;;8.15;3.53;;;29.10;64.50;;;;;;10984750;32;20052;-69
2022/06/22 10:37:00;;;;;;;12.60;4.45;;;29.30;64.10;;;;;;10968599;32;20038;-68
2022/06/22 10:50:04;;;;;;;7.45;3.72;;;29.30;63.60;;;;;;10985056;32;20022;-68
2022/06/22 10:56:41;;;;;;;5.95;3.33;;;29.30;63.40;;;;;;10970431;32;20027;-69
2022/06/22 11:03:13;;;;;;;7.40;3.20;;;29.40;62.80;;;;;;10979235;32;20026;-69
2022/06/22 11:09:51;;;;;;;7.03;2.85;;;29.30;62.70;;;;;;10979029;32;20069;-69
2022/06/22 11:16:14;;;;;;;4.97;2.77;;;29.30;62.70;;;;;;11013619;32;20197;-69
2022/06/22 11:22:52;;;;;;;5.80;2.50;;;29.30;62.80;;;;;;11021173;32;20044;-69
2022/06/22 11:35:56;;;;;;;6.35;2.72;;;29.20;62.30;;;;;;10827358;32;20036;-69
2022/06/22 11:42:28;;;;;;;5.32;3.17;;;29.70;61.50;;;;;;10816462;32;20414;-69
2022/06/22 11:49:03;;;;;;;6.78;2.62;;;30.00;60.50;;;;;;10815983;32;20272;-69
2022/06/22 11:55:25;;;;;;;5.10;2.10;;;30.10;60.20;;;;;;10799010;32;20024;-69
2022/06/22 12:01:50;;;;;;;4.03;2.40;;;30.00;60.40;;;;;;10848195;32;20053;-69
2022/06/22 12:08:21;;;;;;;7.78;2.92;;;30.20;60.10;;;;;;10981198;32;20428;-69
2022/06/22 12:21:09;;;;;;;3.37;1.87;;;30.40;59.50;;;;;;10980675;32;20413;-68
2022/06/22 12:27:25;;;;;;;6.03;2.42;;;30.40;59.30;;;;;;10989977;27;20057;-69
2022/06/22 12:33:35;;;;;;;6.40;2.37;;;30.40;58.90;;;;;;11018620;32;20346;-68
2022/06/22 12:40:00;;;;;;;4.57;3.50;;;30.50;58.50;;;;;;11014235;32;20018;-68
2022/06/22 12:46:11;;;;;;;4.70;2.42;;;30.60;58.10;;;;;;11018649;32;20072;-69
2022/06/22 12:52:23;;;;;;;7.47;2.55;;;30.60;57.90;;;;;;11017220;32;20018;-69
2022/06/22 12:58:55;;;;;;;9.80;4.35;;;30.70;57.50;;;;;;11017857;32;20026;-68
2022/06/22 13:05:21;;;;;;;9.48;4.05;;;31.00;56.50;;;;;;10825163;32;20059;-68
2022/06/22 13:11:27;;;;;;;7.82;4.53;;;31.40;55.50;;;;;;10821622;32;20376;-69
2022/06/22 13:17:54;;;;;;;5.85;3.05;;;31.80;54.50;;;;;;10825646;32;20024;-69
2022/06/22 13:24:37;;;;;;;7.43;2.83;;;31.60;54.80;;;;;;10822839;32;20054;-68
2022/06/22 13:30:45;;;;;;;6.47;2.95;;;31.70;54.80;;;;;;10825106;33;20372;-73
2022/06/22 13:37:46;;;;;;;6.40;3.37;;;31.90;53.90;;;;;;10831550;32;20050;-73
2022/06/22 13:43:56;;;;;;;4.40;2.60;;;32.10;53.60;;;;;;10722991;33;20040;-74
2022/06/22 13:50:17;;;;;;;6.20;3.10;;;31.70;53.90;;;;;;10722743;33;20398;-74
2022/06/22 13:56:45;;;;;;;7.35;3.08;;;31.50;54.10;;;;;;10722476;33;20451;-73
2022/06/22 14:03:14;;;;;;;9.57;2.90;;;31.30;54.10;;;;;;10722402;33;20393;-74
2022/06/22 14:09:34;;;;;;;6.85;3.95;;;31.50;54.10;;;;;;10722048;33;20086;-74
2022/06/22 14:16:05;;;;;;;5.53;3.10;;;31.90;53.50;;;;;;10789728;32;20054;-74
2022/06/22 14:22:23;;;;;;;9.45;3.83;;;32.10;53.00;;;;;;10894161;32;20057;-73
2022/06/22 14:28:43;;;;;;;4.80;3.03;;;32.20;52.80;;;;;;10904048;32;20102;-73
2022/06/22 14:34:49;;;;;;;4.35;2.85;;;32.20;52.90;;;;;;10905429;32;20027;-74
2022/06/22 14:41:16;;;;;;;6.60;3.58;;;32.00;53.20;;;;;;10906002;32;20411;-74
2022/06/22 14:47:34;;;;;;;7.90;3.97;;;31.90;53.40;;;;;;10889430;32;20042;-74
2022/06/22 14:53:52;;;;;;;4.97;3.12;;;31.90;53.40;;;;;;10976405;32;20029;-74
2022/06/22 15:00:19;;;;;;;10.07;3.65;;;31.90;53.40;;;;;;10994802;32;20030;-74
2022/06/22 15:06:22;;;;;;;5.40;2.92;;;31.70;53.40;;;;;;10983578;32;20041;-74
2022/06/22 15:19:17;;;;;;;6.78;3.37;;;31.80;53.30;;;;;;10983140;32;20019;-74
2022/06/22 15:25:48;;;;;;;8.65;3.05;;;31.70;53.00;;;;;;10979848;32;20026;-69
2022/06/22 15:32:13;;;;;;;9.05;3.60;;;31.60;52.80;;;;;;10965145;32;20311;-69
2022/06/22 15:38:36;;;;;;;10.53;3.83;;;31.50;53.50;;;;;;10981971;32;20022;-68
2022/06/22 15:44:47;;;;;;;12.18;3.60;;;31.60;53.40;;;;;;10962641;32;20030;-68
2022/06/22 15:51:00;;;;;;;5.90;3.30;;;31.60;53.80;;;;;;10978030;32;20034;-68
2022/06/22 15:57:21;;;;;;;4.72;2.85;;;31.40;54.50;;;;;;10981846;32;20061;-67
2022/06/22 16:03:41;;;;;;;4.70;2.72;;;31.40;54.30;;;;;;10976514;32;20018;-73
2022/06/22 16:09:49;;;;;;;10.15;3.85;;;31.50;54.00;;;;;;10981295;32;20061;-74
2022/06/22 16:16:25;;;;;;;5.78;3.35;;;31.50;53.90;;;;;;10980734;32;20053;-74
2022/06/22 16:22:38;;;;;;;7.20;3.28;;;31.50;53.70;;;;;;10981220;32;20432;-74
2022/06/22 16:28:43;;;;;;;5.32;3.15;;;31.60;53.80;;;;;;10967255;32;20441;-69
2022/06/22 16:34:57;;;;;;;8.20;3.12;;;31.60;53.90;;;;;;10976106;32;20048;-69
2022/06/22 16:41:02;;;;;;;8.43;3.53;;;31.50;54.30;;;;;;10975974;32;20060;-68
2022/06/22 16:47:08;;;;;;;11.85;3.17;;;31.40;54.70;;;;;;10976015;32;20053;-74
2022/06/22 16:53:15;;;;;;;7.10;2.87;;;31.40;54.80;;;;;;10979760;32;20042;-73
2022/06/22 16:59:24;;;;;;;5.47;2.73;;;31.40;54.80;;;;;;10979695;32;20023;-73
2022/06/22 17:05:43;;;;;;;5.95;2.67;;;31.30;54.90;;;;;;10979526;32;20383;-73
2022/06/22 17:11:46;;;;;;;5.35;2.58;;;31.30;55.10;;;;;;10985077;32;20045;-73
2022/06/22 17:18:03;;;;;;;4.50;2.85;;;31.30;55.20;;;;;;11023259;32;20018;-74
2022/06/22 17:24:18;;;;;;;4.43;2.73;;;31.20;55.30;;;;;;11025250;32;20045;-73
2022/06/22 17:30:40;;;;;;;4.25;2.83;;;31.30;55.20;;;;;;11023818;32;20036;-73
2022/06/22 17:36:55;;;;;;;3.15;2.20;;;31.20;55.20;;;;;;11023182;32;20068;-73
2022/06/22 17:43:03;;;;;;;3.80;1.98;;;31.20;55.20;;;;;;11024562;32;20022;-73
2022/06/22 17:49:12;;;;;;;6.70;3.67;;;31.30;55.10;;;;;;11024257;32;20022;-74
2022/06/22 17:55:28;;;;;;;5.78;3.03;;;31.50;54.70;;;;;;11024007;32;20045;-74
2022/06/22 18:01:43;;;;;;;6.05;2.78;;;31.60;54.40;;;;;;11023702;32;20030;-74
2022/06/22 18:07:50;;;;;;;3.62;2.42;;;31.60;54.40;;;;;;11023653;32;20045;-74
2022/06/22 18:13:58;;;;;;;5.32;2.55;;;31.40;54.90;;;;;;11023426;32;20092;-74
2022/06/22 18:20:06;;;;;;;5.78;2.42;;;31.10;55.40;;;;;;11009782;32;20019;-74
2022/06/22 18:26:10;;;;;;;4.57;2.60;;;31.00;55.80;;;;;;11022532;32;20023;-73
2022/06/22 18:32:32;;;;;;;3.60;1.98;;;30.90;56.20;;;;;;11022703;32;20445;-73
2022/06/22 18:45:39;;;;;;;4.20;2.35;;;30.70;56.50;;;;;;11022616;32;20037;-74
2022/06/22 18:51:48;;;;;;;3.70;2.08;;;30.60;56.70;;;;;;11012818;32;20198;-74
2022/06/22 18:57:51;;;;;;;3.15;1.87;;;30.50;57.00;;;;;;11021927;32;20044;-74
2022/06/22 19:03:53;;;;;;;4.32;1.90;;;30.40;57.20;;;;;;11021504;32;20054;-74
2022/06/22 19:10:05;;;;;;;4.00;2.50;;;30.30;57.30;;;;;;11021056;32;20021;-69
2022/06/22 19:16:13;;;;;;;19.00;2.90;;;30.20;57.50;;;;;;11016874;32;20022;-69
2022/06/22 19:22:47;;;;;;;2.80;2.03;;;30.20;57.80;;;;;;11021181;32;20014;-69
2022/06/22 19:29:12;;;;;;;7.40;2.30;;;30.10;57.90;;;;;;11016599;32;20030;-69
2022/06/22 19:35:32;;;;;;;4.90;2.50;;;30.10;58.10;;;;;;11002246;32;20048;-69
2022/06/22 19:41:46;;;;;;;2.85;1.87;;;30.00;58.30;;;;;;11002764;32;20026;-69
2022/06/22 19:48:11;;;;;;;4.03;2.20;;;29.90;58.50;;;;;;11016875;32;20026;-69
2022/06/22 19:54:35;;;;;;;6.20;3.00;;;29.80;58.60;;;;;;10827115;32;20074;-69
2022/06/22 20:00:42;;;;;;;5.37;2.15;;;29.80;58.80;;;;;;10811662;32;20046;-73
2022/06/22 20:06:57;;;;;;;5.15;2.78;;;29.70;58.90;;;;;;10827502;32;20355;-74
2022/06/22 20:13:05;;;;;;;4.22;1.98;;;29.70;59.00;;;;;;10827541;32;20363;-74
2022/06/22 20:19:07;;;;;;;4.45;2.20;;;29.70;59.10;;;;;;10828206;32;20048;-74
2022/06/22 20:25:30;;;;;;;3.85;1.87;;;29.60;59.20;;;;;;10815592;32;20035;-74
2022/06/22 20:31:50;;;;;;;3.28;2.05;;;29.50;59.40;;;;;;10488755;27;12298750;-69
2022/06/22 20:37:54;;;;;;;4.47;3.22;;;29.40;59.50;;;;;;10859799;32;20038;-69
2022/06/22 20:43:58;;;;;;;4.07;2.62;;;29.30;59.70;;;;;;10863048;32;20050;-69
2022/06/22 20:50:07;;;;;;;2.50;2.17;;;29.30;59.80;;;;;;10859263;32;20428;-74
2022/06/22 20:56:12;;;;;;;4.62;2.58;;;29.10;60.00;;;;;;10864018;32;20054;-74
2022/06/22 21:02:41;;;;;;;6.03;2.78;;;29.10;60.10;;;;;;10909725;32;20061;-74
2022/06/22 21:08:54;;;;;;;4.37;2.53;;;29.00;60.20;;;;;;10941933;32;20088;-74
2022/06/22 21:15:21;;;;;;;4.15;2.72;;;29.10;60.40;;;;;;10941939;32;20046;-74
2022/06/22 21:22:37;;;;;;;7.30;2.50;;;29.10;60.40;;;;;;10749154;33;20113;-74
2022/06/22 21:35:31;;;;;;;4.07;2.67;;;29.10;60.70;;;;;;10752622;33;20352;-74
2022/06/22 21:41:44;;;;;;;4.25;2.62;;;29.00;60.90;;;;;;10752929;33;20064;-74
2022/06/22 21:48:12;;;;;;;4.25;3.15;;;29.00;61.10;;;;;;10752071;33;20033;-74
2022/06/22 21:54:36;;;;;;;3.40;2.20;;;28.90;61.60;;;;;;10702695;33;20028;-74
2022/06/22 22:00:41;;;;;;;6.22;2.95;;;28.80;61.80;;;;;;10792549;33;20033;-74
2022/06/22 22:07:02;;;;;;;4.93;2.97;;;28.80;61.90;;;;;;10794923;33;20058;-74
2022/06/22 22:13:37;;;;;;;9.82;3.90;;;28.80;62.10;;;;;;10794683;32;20044;-73
2022/06/22 22:19:54;;;;;;;5.22;2.62;;;28.60;62.70;;;;;;10794469;33;20028;-74
2022/06/22 22:26:12;;;;;;;8.68;3.80;;;28.60;63.00;;;;;;10794326;33;20466;-74
2022/06/22 22:32:15;;;;;;;6.70;3.08;;;28.50;62.90;;;;;;10854828;32;20027;-74
2022/06/22 22:38:22;;;;;;;3.72;2.72;;;28.30;63.10;;;;;;10867796;32;20360;-73
2022/06/22 22:44:28;;;;;;;3.45;2.60;;;28.30;63.30;;;;;;10868076;32;20027;-74
2022/06/22 22:50:35;;;;;;;3.78;2.50;;;28.20;63.50;;;;;;10867229;32;20019;-74
2022/06/22 22:56:50;;;;;;;4.40;3.03;;;28.20;63.80;;;;;;10867152;32;20473;-74
2022/06/22 23:03:05;;;;;;;4.95;3.35;;;28.20;64.20;;;;;;10867443;32;20042;-74
2022/06/22 23:09:18;;;;;;;9.85;2.83;;;28.20;64.00;;;;;;10866077;32;20053;-74
2022/06/22 23:15:27;;;;;;;4.55;2.70;;;28.00;64.00;;;;;;10866296;32;20062;-74
2022/06/22 23:21:42;;;;;;;3.85;2.80;;;27.90;64.20;;;;;;10866265;32;20428;-74
2022/06/22 23:27:46;;;;;;;5.93;3.50;;;27.90;64.10;;;;;;10909257;32;20070;-74
2022/06/22 23:33:49;;;;;;;7.15;2.92;;;27.80;64.20;;;;;;10945123;32;20015;-74
2022/06/22 23:39:52;;;;;;;4.35;2.97;;;27.80;64.40;;;;;;10944898;32;20050;-74
2022/06/22 23:45:57;;;;;;;5.37;2.90;;;27.80;64.60;;;;;;10944663;32;20061;-74
2022/06/22 23:52:00;;;;;;;4.68;3.47;;;27.80;64.50;;;;;;10944200;32;20022;-74
2022/06/22 23:58:03;;;;;;;3.40;2.28;;;27.80;64.80;;;;;;10944189;32;20041;-74
